createdAt,value
2017-02-23T00:01:03.158Z,995.95
2017-02-23T00:02:05.358Z,995.93
2017-02-23T00:03:11.454Z,995.93
2017-02-23T00:04:16.580Z,995.92
2017-02-23T00:05:20.754Z,995.92
2017-02-23T00:06:25.865Z,995.95
2017-02-23T00:07:31.963Z,995.97
2017-02-23T00:08:38.066Z,995.99
2017-02-23T00:09:42.226Z,996.02
2017-02-23T00:10:46.382Z,996.02
2017-02-23T00:11:52.548Z,996.02
2017-02-23T00:12:58.632Z,996.01
2017-02-23T00:14:04.724Z,996.05
2017-02-23T00:15:08.889Z,996.03
2017-02-23T00:16:13.034Z,996.01
2017-02-23T00:17:19.116Z,996.07
2017-02-23T00:18:25.218Z,996.05
2017-02-23T00:19:31.317Z,995.99
2017-02-23T00:20:37.419Z,995.96
2017-02-23T00:21:43.519Z,995.99
2017-02-23T00:22:49.685Z,995.98
2017-02-23T00:23:55.815Z,995.97
2017-02-23T00:25:01.906Z,995.94
2017-02-23T00:26:08.003Z,995.97
2017-02-23T00:27:14.141Z,995.97
2017-02-23T00:28:19.269Z,995.9
2017-02-23T00:29:24.393Z,995.95
2017-02-23T00:30:30.520Z,995.94
2017-02-23T00:31:36.591Z,995.92
2017-02-23T00:32:41.695Z,995.92
2017-02-23T00:33:47.802Z,995.92
2017-02-23T00:34:52.917Z,995.88
2017-02-23T00:35:57.074Z,995.94
2017-02-23T00:37:03.170Z,995.98
2017-02-23T00:38:08.294Z,995.95
2017-02-23T00:39:13.399Z,995.95
2017-02-23T00:40:19.549Z,995.9
2017-02-23T00:41:25.632Z,995.91
2017-02-23T00:42:31.715Z,995.94
2017-02-23T00:43:36.855Z,995.94
2017-02-23T00:44:42.954Z,995.92
2017-02-23T00:45:49.074Z,995.92
2017-02-23T00:46:54.177Z,995.88
2017-02-23T00:47:59.310Z,995.87
2017-02-23T00:49:05.417Z,995.87
2017-02-23T00:50:11.512Z,995.9
2017-02-23T00:51:16.614Z,995.88
2017-02-23T00:52:21.712Z,995.88
2017-02-23T00:53:25.868Z,995.9
2017-02-23T00:54:30.996Z,995.86
2017-02-23T00:55:37.087Z,995.88
2017-02-23T00:56:42.232Z,995.86
2017-02-23T00:57:46.383Z,995.83
2017-02-23T00:58:52.496Z,995.86
2017-02-23T00:59:58.566Z,995.83
2017-02-23T01:01:01.753Z,995.83
2017-02-23T01:02:07.852Z,995.83
2017-02-23T01:03:13.978Z,995.85
2017-02-23T01:04:20.052Z,995.85
2017-02-23T01:05:25.181Z,995.83
2017-02-23T01:06:30.278Z,995.81
2017-02-23T01:07:33.449Z,995.85
2017-02-23T01:08:38.574Z,995.85
2017-02-23T01:09:43.697Z,995.81
2017-02-23T01:10:48.824Z,995.87
2017-02-23T01:11:53.951Z,995.83
2017-02-23T01:12:59.073Z,995.8
2017-02-23T01:14:04.195Z,995.83
2017-02-23T01:15:09.318Z,995.82
2017-02-23T01:16:14.438Z,995.81
2017-02-23T01:17:19.559Z,995.82
2017-02-23T01:18:23.697Z,995.84
2017-02-23T01:19:28.794Z,995.88
2017-02-23T01:20:32.979Z,995.87
2017-02-23T01:21:38.083Z,995.83
2017-02-23T01:22:42.252Z,995.86
2017-02-23T01:23:45.453Z,995.87
2017-02-23T01:24:48.607Z,995.89
2017-02-23T01:25:53.700Z,995.85
2017-02-23T01:26:59.790Z,995.86
2017-02-23T01:28:04.968Z,995.89
2017-02-23T01:29:11.075Z,995.89
2017-02-23T01:30:17.159Z,995.9
2017-02-23T01:31:23.248Z,995.94
2017-02-23T01:32:29.344Z,995.93
2017-02-23T01:33:35.428Z,995.87
2017-02-23T01:34:41.516Z,995.86
2017-02-23T01:35:46.656Z,995.81
2017-02-23T01:36:52.751Z,995.86
2017-02-23T01:37:58.840Z,995.82
2017-02-23T01:39:04.928Z,995.84
2017-02-23T01:40:10.051Z,995.76
2017-02-23T01:41:16.152Z,995.76
2017-02-23T01:42:22.268Z,995.78
2017-02-23T01:43:27.396Z,995.77
2017-02-23T01:44:33.466Z,995.7
2017-02-23T01:45:38.595Z,995.76
2017-02-23T01:46:43.728Z,995.7
2017-02-23T01:47:49.815Z,995.67
2017-02-23T01:48:54.942Z,995.65
2017-02-23T01:50:01.043Z,995.64
2017-02-23T01:51:05.197Z,995.6
2017-02-23T01:52:11.292Z,995.56
2017-02-23T01:53:16.421Z,995.5
2017-02-23T01:54:22.510Z,995.56
2017-02-23T01:55:28.608Z,995.52
2017-02-23T01:56:34.706Z,995.51
2017-02-23T01:57:37.875Z,995.45
2017-02-23T01:58:43.969Z,995.48
2017-02-23T01:59:50.065Z,995.43
2017-02-23T02:00:55.191Z,995.48
2017-02-23T02:02:01.286Z,995.44
2017-02-23T02:03:07.386Z,995.42
2017-02-23T02:04:11.543Z,995.42
2017-02-23T02:05:15.706Z,995.44
2017-02-23T02:06:20.830Z,995.44
2017-02-23T02:07:26.922Z,995.4
2017-02-23T02:08:32.045Z,995.45
2017-02-23T02:09:37.172Z,995.42
2017-02-23T02:10:42.297Z,995.4
2017-02-23T02:11:46.427Z,995.44
2017-02-23T02:12:52.518Z,995.39
2017-02-23T02:13:58.605Z,995.42
2017-02-23T02:15:02.767Z,995.39
2017-02-23T02:16:08.878Z,995.4
2017-02-23T02:17:13.981Z,995.35
2017-02-23T02:18:20.074Z,995.35
2017-02-23T02:19:26.178Z,995.37
2017-02-23T02:20:31.299Z,995.34
2017-02-23T02:21:34.461Z,995.33
2017-02-23T02:22:39.596Z,995.28
2017-02-23T02:23:45.698Z,995.26
2017-02-23T02:24:50.804Z,995.21
2017-02-23T02:25:55.933Z,995.22
2017-02-23T02:27:01.059Z,995.16
2017-02-23T02:28:04.216Z,995.11
2017-02-23T02:29:10.313Z,995.13
2017-02-23T02:30:15.494Z,995.09
2017-02-23T02:31:20.616Z,995.07
2017-02-23T02:32:25.740Z,995.07
2017-02-23T02:33:30.878Z,995.09
2017-02-23T02:34:36.043Z,995.06
2017-02-23T02:35:42.127Z,995.07
2017-02-23T02:36:47.249Z,995.06
2017-02-23T02:37:53.397Z,995.09
2017-02-23T02:38:59.520Z,995.05
2017-02-23T02:40:05.585Z,995.07
2017-02-23T02:41:11.672Z,995.09
2017-02-23T02:42:16.806Z,995.06
2017-02-23T02:43:22.889Z,995.04
2017-02-23T02:44:27.049Z,995.01
2017-02-23T02:45:28.280Z,995
2017-02-23T02:46:33.410Z,994.96
2017-02-23T02:47:38.537Z,994.94
2017-02-23T02:48:44.644Z,994.92
2017-02-23T02:49:49.770Z,994.91
2017-02-23T02:50:53.922Z,994.88
2017-02-23T02:52:00.024Z,994.89
2017-02-23T02:53:06.167Z,994.84
2017-02-23T02:54:11.296Z,994.85
2017-02-23T02:55:15.410Z,994.86
2017-02-23T02:56:19.580Z,994.85
2017-02-23T02:57:24.800Z,994.85
2017-02-23T02:58:30.925Z,994.86
2017-02-23T02:59:37.009Z,994.85
2017-02-23T03:00:42.128Z,994.87
2017-02-23T03:01:47.260Z,994.89
2017-02-23T03:02:52.389Z,994.83
2017-02-23T03:03:57.519Z,994.81
2017-02-23T03:05:03.642Z,994.8
2017-02-23T03:06:09.729Z,994.77
2017-02-23T03:07:14.852Z,994.81
2017-02-23T03:08:19.979Z,994.79
2017-02-23T03:09:25.095Z,994.76
2017-02-23T03:10:30.219Z,994.75
2017-02-23T03:11:34.382Z,994.76
2017-02-23T03:12:39.500Z,994.71
2017-02-23T03:13:44.636Z,994.73
2017-02-23T03:14:49.761Z,994.69
2017-02-23T03:15:54.897Z,994.73
2017-02-23T03:17:00.989Z,994.71
2017-02-23T03:18:07.074Z,994.73
2017-02-23T03:19:11.215Z,994.7
2017-02-23T03:20:16.363Z,994.69
2017-02-23T03:21:21.491Z,994.75
2017-02-23T03:22:25.646Z,994.72
2017-02-23T03:23:28.810Z,994.69
2017-02-23T03:24:34.921Z,994.7
2017-02-23T03:25:41.009Z,994.73
2017-02-23T03:26:46.138Z,994.68
2017-02-23T03:27:52.232Z,994.64
2017-02-23T03:28:58.333Z,994.7
2017-02-23T03:30:04.449Z,994.67
2017-02-23T03:31:10.540Z,994.64
2017-02-23T03:32:15.668Z,994.61
2017-02-23T03:33:21.752Z,994.68
2017-02-23T03:34:27.853Z,994.64
2017-02-23T03:35:32.985Z,994.56
2017-02-23T03:36:37.143Z,994.56
2017-02-23T03:37:43.235Z,994.6
2017-02-23T03:38:48.368Z,994.54
2017-02-23T03:39:54.462Z,994.53
2017-02-23T03:41:00.576Z,994.51
2017-02-23T03:42:04.730Z,994.52
2017-02-23T03:43:09.825Z,994.46
2017-02-23T03:44:14.956Z,994.49
2017-02-23T03:45:19.108Z,994.48
2017-02-23T03:46:24.238Z,994.48
2017-02-23T03:47:29.377Z,994.42
2017-02-23T03:48:35.471Z,994.44
2017-02-23T03:49:41.567Z,994.41
2017-02-23T03:50:46.702Z,994.39
2017-02-23T03:51:52.799Z,994.39
2017-02-23T03:52:58.891Z,994.33
2017-02-23T03:54:04.990Z,994.32
2017-02-23T03:55:11.091Z,994.3
2017-02-23T03:56:17.175Z,994.31
2017-02-23T03:57:21.378Z,994.29
2017-02-23T03:58:27.474Z,994.25
2017-02-23T03:59:33.566Z,994.2
2017-02-23T04:00:38.672Z,994.25
2017-02-23T04:01:41.863Z,994.21
2017-02-23T04:02:47.000Z,994.22
2017-02-23T04:03:50.149Z,994.24
2017-02-23T04:04:55.273Z,994.18
2017-02-23T04:06:01.363Z,994.21
2017-02-23T04:07:07.457Z,994.2
2017-02-23T04:08:11.634Z,994.16
2017-02-23T04:09:16.746Z,994.16
2017-02-23T04:10:21.868Z,994.2
2017-02-23T04:11:26.997Z,994.14
2017-02-23T04:12:33.095Z,994.14
2017-02-23T04:13:39.182Z,994.14
2017-02-23T04:14:45.276Z,994.14
2017-02-23T04:15:50.412Z,994.09
2017-02-23T04:16:54.569Z,994.12
2017-02-23T04:17:57.748Z,994.07
2017-02-23T04:19:03.832Z,994.08
2017-02-23T04:20:09.928Z,994.05
2017-02-23T04:21:16.018Z,994.05
2017-02-23T04:22:22.106Z,994.04
2017-02-23T04:23:27.229Z,993.98
2017-02-23T04:24:32.355Z,993.99
2017-02-23T04:25:38.446Z,993.94
2017-02-23T04:26:44.557Z,993.97
2017-02-23T04:27:50.642Z,993.93
2017-02-23T04:28:56.752Z,993.88
2017-02-23T04:30:01.875Z,993.86
2017-02-23T04:31:07.971Z,993.81
2017-02-23T04:32:13.102Z,993.79
2017-02-23T04:33:19.190Z,993.76
2017-02-23T04:34:24.318Z,993.77
2017-02-23T04:35:29.415Z,993.7
2017-02-23T04:36:34.548Z,993.68
2017-02-23T04:37:39.678Z,993.67
2017-02-23T04:38:45.770Z,993.62
2017-02-23T04:39:51.865Z,993.61
2017-02-23T04:40:57.966Z,993.57
2017-02-23T04:42:04.061Z,993.55
2017-02-23T04:43:09.182Z,993.54
2017-02-23T04:44:13.340Z,993.54
2017-02-23T04:45:18.434Z,993.52
2017-02-23T04:46:24.567Z,993.51
2017-02-23T04:47:29.691Z,993.47
2017-02-23T04:48:34.812Z,993.46
2017-02-23T04:49:39.911Z,993.45
2017-02-23T04:50:46.005Z,993.44
2017-02-23T04:51:51.133Z,993.39
2017-02-23T04:52:57.233Z,993.38
2017-02-23T04:54:02.364Z,993.36
2017-02-23T04:55:07.493Z,993.33
2017-02-23T04:56:12.602Z,993.31
2017-02-23T04:57:16.759Z,993.3
2017-02-23T04:58:21.881Z,993.25
2017-02-23T04:59:27.018Z,993.25
2017-02-23T05:00:32.141Z,993.18
2017-02-23T05:01:37.259Z,993.16
2017-02-23T05:02:43.377Z,993.12
2017-02-23T05:03:48.486Z,993.12
2017-02-23T05:04:54.584Z,993.06
2017-02-23T05:05:59.713Z,993.06
2017-02-23T05:07:05.809Z,993.05
2017-02-23T05:08:08.966Z,993.03
2017-02-23T05:09:14.094Z,992.99
2017-02-23T05:10:20.184Z,992.99
2017-02-23T05:11:25.336Z,992.98
2017-02-23T05:12:30.419Z,992.96
2017-02-23T05:13:34.591Z,992.89
2017-02-23T05:14:39.761Z,992.91
2017-02-23T05:15:43.917Z,992.85
2017-02-23T05:16:50.015Z,992.82
2017-02-23T05:17:55.184Z,992.8
2017-02-23T05:19:00.284Z,992.72
2017-02-23T05:20:04.435Z,992.69
2017-02-23T05:21:10.524Z,992.72
2017-02-23T05:22:14.692Z,992.69
2017-02-23T05:23:20.895Z,992.69
2017-02-23T05:24:24.951Z,992.67
2017-02-23T05:25:31.060Z,992.67
2017-02-23T05:26:35.320Z,992.58
2017-02-23T05:27:40.440Z,992.61
2017-02-23T05:28:45.568Z,992.53
2017-02-23T05:29:49.705Z,992.57
2017-02-23T05:30:53.845Z,992.51
2017-02-23T05:31:57.972Z,992.52
2017-02-23T05:33:03.097Z,992.46
2017-02-23T05:34:08.245Z,992.47
2017-02-23T05:35:14.343Z,992.4
2017-02-23T05:36:20.454Z,992.42
2017-02-23T05:37:26.544Z,992.4
2017-02-23T05:38:32.634Z,992.36
2017-02-23T05:39:37.767Z,992.29
2017-02-23T05:40:43.859Z,992.3
2017-02-23T05:41:49.955Z,992.28
2017-02-23T05:42:56.048Z,992.29
2017-02-23T05:44:01.174Z,992.24
2017-02-23T05:45:05.307Z,992.19
2017-02-23T05:46:10.448Z,992.24
2017-02-23T05:47:15.555Z,992.2
2017-02-23T05:48:18.720Z,992.18
2017-02-23T05:49:23.841Z,992.13
2017-02-23T05:50:28.973Z,992.12
2017-02-23T05:51:34.078Z,992.14
2017-02-23T05:52:39.198Z,992.11
2017-02-23T05:53:44.343Z,992.09
2017-02-23T05:54:49.457Z,992.15
2017-02-23T05:55:52.644Z,992.08
2017-02-23T05:56:56.774Z,992.05
2017-02-23T05:58:02.872Z,991.98
2017-02-23T05:59:08.971Z,991.99
2017-02-23T06:00:14.100Z,991.9
2017-02-23T06:01:19.255Z,991.94
2017-02-23T06:02:25.374Z,991.92
2017-02-23T06:03:31.467Z,991.88
2017-02-23T06:04:37.561Z,991.9
2017-02-23T06:05:42.691Z,991.86
2017-02-23T06:06:47.817Z,991.89
2017-02-23T06:07:53.918Z,991.79
2017-02-23T06:08:59.040Z,991.82
2017-02-23T06:10:03.165Z,991.82
2017-02-23T06:11:07.319Z,991.82
2017-02-23T06:12:13.422Z,991.81
2017-02-23T06:13:19.520Z,991.72
2017-02-23T06:14:23.675Z,991.71
2017-02-23T06:15:29.763Z,991.72
2017-02-23T06:16:35.859Z,991.64
2017-02-23T06:17:41.948Z,991.63
2017-02-23T06:18:47.080Z,991.67
2017-02-23T06:19:53.178Z,991.68
2017-02-23T06:20:58.301Z,991.61
2017-02-23T06:22:02.439Z,991.55
2017-02-23T06:23:08.535Z,991.57
2017-02-23T06:24:14.641Z,991.56
2017-02-23T06:25:18.773Z,991.52
2017-02-23T06:26:23.901Z,991.62
2017-02-23T06:27:29.069Z,991.49
2017-02-23T06:28:35.199Z,991.5
2017-02-23T06:29:39.337Z,991.46
2017-02-23T06:30:45.430Z,991.51
2017-02-23T06:31:50.573Z,991.54
2017-02-23T06:32:54.751Z,991.56
2017-02-23T06:34:00.845Z,991.51
2017-02-23T06:35:06.945Z,991.53
2017-02-23T06:36:13.043Z,991.46
2017-02-23T06:37:18.154Z,991.53
2017-02-23T06:38:24.245Z,991.5
2017-02-23T06:39:29.370Z,991.41
2017-02-23T06:40:35.465Z,991.52
2017-02-23T06:42:47.639Z,991.46
2017-02-23T06:43:53.739Z,991.49
2017-02-23T06:44:56.908Z,991.49
2017-02-23T06:46:03.050Z,991.47
2017-02-23T06:47:07.205Z,991.44
2017-02-23T06:48:13.302Z,991.43
2017-02-23T06:49:18.435Z,991.44
2017-02-23T06:50:21.614Z,991.48
2017-02-23T06:51:26.712Z,991.42
2017-02-23T06:52:32.805Z,991.41
2017-02-23T06:53:38.902Z,991.33
2017-02-23T06:54:45.008Z,991.42
2017-02-23T06:55:51.106Z,991.41
2017-02-23T06:56:56.201Z,991.36
2017-02-23T06:58:01.329Z,991.41
2017-02-23T06:59:07.455Z,991.36
2017-02-23T07:00:12.582Z,991.47
2017-02-23T07:01:18.696Z,991.44
2017-02-23T07:02:24.795Z,991.48
2017-02-23T07:03:29.927Z,991.47
2017-02-23T07:04:35.047Z,991.5
2017-02-23T07:05:41.146Z,991.41
2017-02-23T07:06:45.272Z,991.55
2017-02-23T07:07:51.369Z,991.34
2017-02-23T07:08:56.467Z,991.4
2017-02-23T07:10:02.560Z,991.39
2017-02-23T07:11:08.649Z,991.45
2017-02-23T07:12:12.804Z,991.44
2017-02-23T07:13:18.894Z,991.46
2017-02-23T07:14:22.062Z,991.38
2017-02-23T07:15:27.162Z,991.4
2017-02-23T07:16:32.257Z,991.44
2017-02-23T07:17:36.391Z,991.48
2017-02-23T07:18:42.487Z,991.4
2017-02-23T07:19:47.579Z,991.46
2017-02-23T07:20:53.677Z,991.49
2017-02-23T07:21:59.771Z,991.38
2017-02-23T07:23:04.910Z,991.46
2017-02-23T07:24:10.120Z,991.46
2017-02-23T07:25:14.255Z,991.42
2017-02-23T07:26:20.345Z,991.32
2017-02-23T07:27:24.522Z,991.43
2017-02-23T07:28:29.652Z,991.5
2017-02-23T07:29:35.759Z,991.48
2017-02-23T07:30:41.853Z,991.46
2017-02-23T07:31:47.970Z,991.51
2017-02-23T07:32:53.098Z,991.46
2017-02-23T07:33:57.258Z,991.54
2017-02-23T07:35:03.355Z,991.32
2017-02-23T07:36:08.491Z,991.38
2017-02-23T07:37:14.584Z,991.34
2017-02-23T07:38:19.855Z,991.41
2017-02-23T07:39:23.985Z,991.33
2017-02-23T07:41:35.232Z,991.38
2017-02-23T07:42:39.381Z,991.28
2017-02-23T07:43:43.600Z,991.35
2017-02-23T07:44:48.728Z,991.37
2017-02-23T07:45:54.823Z,991.3
2017-02-23T07:46:57.986Z,991.3
2017-02-23T07:48:03.105Z,991.25
2017-02-23T07:49:07.267Z,991.24
2017-02-23T07:50:13.364Z,991.28
2017-02-23T07:51:19.473Z,991.21
2017-02-23T07:52:24.582Z,991.2
2017-02-23T07:53:29.707Z,991.21
2017-02-23T07:54:34.809Z,991.23
2017-02-23T07:55:39.934Z,991.14
2017-02-23T07:56:45.060Z,991.18
2017-02-23T07:57:50.188Z,991.12
2017-02-23T07:58:55.289Z,991.13
2017-02-23T08:00:01.382Z,991.12
2017-02-23T08:01:05.540Z,991.18
2017-02-23T08:02:10.670Z,991.06
2017-02-23T08:03:16.767Z,991.08
2017-02-23T08:04:21.865Z,991.1
2017-02-23T08:05:27.957Z,991.14
2017-02-23T08:06:33.076Z,991.13
2017-02-23T08:07:37.221Z,991.01
2017-02-23T08:08:43.323Z,991.04
2017-02-23T08:09:49.453Z,991.02
2017-02-23T08:10:55.540Z,991
2017-02-23T08:12:01.639Z,990.96
2017-02-23T08:13:05.803Z,991
2017-02-23T08:14:09.962Z,991.05
2017-02-23T08:15:15.070Z,990.97
2017-02-23T08:16:21.368Z,990.96
2017-02-23T08:17:25.553Z,990.86
2017-02-23T08:18:30.674Z,990.88
2017-02-23T08:19:35.974Z,990.85
2017-02-23T08:20:42.071Z,990.83
2017-02-23T08:21:47.192Z,990.79
2017-02-23T08:22:53.429Z,990.7
2017-02-23T08:23:58.550Z,990.75
2017-02-23T08:25:04.644Z,990.64
2017-02-23T08:26:09.773Z,990.65
2017-02-23T08:27:14.911Z,990.65
2017-02-23T08:28:21.001Z,990.6
2017-02-23T08:29:27.099Z,990.57
2017-02-23T08:30:32.225Z,990.54
2017-02-23T08:31:37.353Z,990.46
2017-02-23T08:32:42.465Z,990.6
2017-02-23T08:33:47.589Z,990.49
2017-02-23T08:34:52.711Z,990.39
2017-02-23T08:35:58.803Z,990.4
2017-02-23T08:37:02.932Z,990.31
2017-02-23T08:38:08.029Z,990.33
2017-02-23T08:39:12.194Z,990.35
2017-02-23T08:40:16.326Z,990.3
2017-02-23T08:41:22.424Z,990.25
2017-02-23T08:42:27.554Z,990.18
2017-02-23T08:43:32.684Z,990.25
2017-02-23T08:44:37.811Z,990.29
2017-02-23T08:45:41.000Z,990.19
2017-02-23T08:46:47.096Z,990.25
2017-02-23T08:47:52.229Z,990.19
2017-02-23T08:48:58.341Z,990.19
2017-02-23T08:50:03.432Z,990.12
2017-02-23T08:51:09.529Z,990.07
2017-02-23T08:52:13.693Z,990.09
2017-02-23T08:53:19.786Z,990.04
2017-02-23T08:54:25.874Z,989.98
2017-02-23T08:55:31.979Z,989.99
2017-02-23T08:56:36.106Z,989.91
2017-02-23T08:57:41.206Z,989.88
2017-02-23T08:58:46.360Z,989.94
2017-02-23T08:59:51.470Z,989.9
2017-02-23T09:00:57.558Z,989.78
2017-02-23T09:02:03.677Z,989.77
2017-02-23T09:03:08.817Z,989.72
2017-02-23T09:04:12.986Z,989.72
2017-02-23T09:05:18.083Z,989.62
2017-02-23T09:06:23.213Z,989.65
2017-02-23T09:07:28.343Z,989.64
2017-02-23T09:08:34.434Z,989.48
2017-02-23T09:09:40.529Z,989.52
2017-02-23T09:10:45.663Z,989.58
2017-02-23T09:11:50.779Z,989.57
2017-02-23T09:12:56.880Z,989.49
2017-02-23T09:14:02.969Z,989.49
2017-02-23T09:15:08.099Z,989.51
2017-02-23T09:16:13.203Z,989.53
2017-02-23T09:17:19.290Z,989.54
2017-02-23T09:18:24.418Z,989.49
2017-02-23T09:19:29.542Z,989.6
2017-02-23T09:20:35.664Z,989.41
2017-02-23T09:21:40.772Z,989.48
2017-02-23T09:22:44.901Z,989.46
2017-02-23T09:23:49.090Z,989.43
2017-02-23T09:24:54.235Z,989.4
2017-02-23T09:26:00.318Z,989.38
2017-02-23T09:27:04.454Z,989.28
2017-02-23T09:28:10.552Z,989.38
2017-02-23T09:29:16.656Z,989.31
2017-02-23T09:30:22.745Z,989.36
2017-02-23T09:31:28.836Z,989.2
2017-02-23T09:32:33.931Z,989.37
2017-02-23T09:33:39.061Z,989.17
2017-02-23T09:34:45.165Z,989.27
2017-02-23T09:35:50.293Z,989.29
2017-02-23T09:36:55.418Z,989.27
2017-02-23T09:38:01.566Z,989.21
2017-02-23T09:39:07.626Z,989.17
2017-02-23T09:40:13.721Z,989.29
2017-02-23T09:41:19.813Z,989.24
2017-02-23T09:42:25.905Z,989.35
2017-02-23T09:43:32.002Z,989.15
2017-02-23T09:44:34.189Z,989.19
2017-02-23T09:45:38.322Z,989.37
2017-02-23T09:46:43.446Z,989.28
2017-02-23T09:47:49.550Z,989.19
2017-02-23T09:48:55.657Z,989.23
2017-02-23T09:50:01.764Z,989.2
2017-02-23T09:51:06.867Z,989.16
2017-02-23T09:52:12.000Z,989.1
2017-02-23T09:53:18.089Z,989.15
2017-02-23T09:54:21.283Z,989.03
2017-02-23T09:55:24.492Z,988.96
2017-02-23T09:56:30.570Z,988.98
2017-02-23T09:57:35.700Z,988.95
2017-02-23T09:58:40.831Z,988.92
2017-02-23T09:59:46.930Z,988.87
2017-02-23T10:00:52.054Z,988.85
2017-02-23T10:01:57.179Z,988.77
2017-02-23T10:03:01.283Z,988.84
2017-02-23T10:04:07.381Z,988.85
2017-02-23T10:05:11.550Z,988.84
2017-02-23T10:06:15.734Z,988.78
2017-02-23T10:07:21.811Z,988.7
2017-02-23T10:08:26.904Z,988.69
2017-02-23T10:09:32.038Z,988.62
2017-02-23T10:10:38.132Z,988.69
2017-02-23T10:11:44.237Z,988.73
2017-02-23T10:12:50.341Z,988.71
2017-02-23T10:13:56.421Z,988.61
2017-02-23T10:15:02.532Z,988.63
2017-02-23T10:16:06.677Z,988.71
2017-02-23T10:17:12.768Z,988.67
2017-02-23T10:18:18.866Z,988.62
2017-02-23T10:19:24.968Z,988.7
2017-02-23T10:20:31.062Z,988.65
2017-02-23T10:21:36.204Z,988.47
2017-02-23T10:22:42.284Z,988.6
2017-02-23T10:23:47.407Z,988.64
2017-02-23T10:24:52.499Z,988.49
2017-02-23T10:25:57.624Z,988.58
2017-02-23T10:27:03.720Z,988.49
2017-02-23T10:28:08.842Z,988.47
2017-02-23T10:29:14.001Z,988.58
2017-02-23T10:30:19.131Z,988.39
2017-02-23T10:31:25.231Z,988.4
2017-02-23T10:32:31.320Z,988.36
2017-02-23T10:33:37.413Z,988.47
2017-02-23T10:34:42.531Z,988.35
2017-02-23T10:35:46.690Z,988.39
2017-02-23T10:36:51.786Z,988.26
2017-02-23T10:37:57.882Z,988.2
2017-02-23T10:39:03.007Z,988.35
2017-02-23T10:40:08.129Z,988.29
2017-02-23T10:41:14.224Z,988.18
2017-02-23T10:42:18.368Z,988.21
2017-02-23T10:43:22.526Z,988.19
2017-02-23T10:44:27.665Z,988.16
2017-02-23T10:45:32.804Z,988.18
2017-02-23T10:46:36.943Z,988.1
2017-02-23T10:47:43.037Z,988.13
2017-02-23T10:48:49.124Z,987.96
2017-02-23T10:49:55.219Z,988.06
2017-02-23T10:51:01.318Z,988.02
2017-02-23T10:52:07.418Z,988.07
2017-02-23T10:53:12.551Z,988.06
2017-02-23T10:54:18.663Z,987.9
2017-02-23T10:55:22.808Z,988
2017-02-23T10:56:28.903Z,987.9
2017-02-23T10:57:35.001Z,987.84
2017-02-23T10:58:41.094Z,987.87
2017-02-23T10:59:47.193Z,987.88
2017-02-23T11:00:52.321Z,987.85
2017-02-23T11:01:58.414Z,987.82
2017-02-23T11:03:04.520Z,987.84
2017-02-23T11:04:07.708Z,987.81
2017-02-23T11:05:13.802Z,987.83
2017-02-23T11:06:17.004Z,987.76
2017-02-23T11:07:22.124Z,987.45
2017-02-23T11:08:27.246Z,987.68
2017-02-23T11:09:32.386Z,987.58
2017-02-23T11:10:38.478Z,987.55
2017-02-23T11:11:41.664Z,987.46
2017-02-23T11:12:47.728Z,987.33
2017-02-23T11:13:53.832Z,987.45
2017-02-23T11:14:59.927Z,987.38
2017-02-23T11:16:05.189Z,987.33
2017-02-23T11:17:10.224Z,987.34
2017-02-23T11:18:16.328Z,987.27
2017-02-23T11:19:22.449Z,987.22
2017-02-23T11:20:26.586Z,987.28
2017-02-23T11:21:31.712Z,987.18
2017-02-23T11:22:37.828Z,987.21
2017-02-23T11:23:43.938Z,987.2
2017-02-23T11:24:50.031Z,987.11
2017-02-23T11:25:54.191Z,987.08
2017-02-23T11:26:58.455Z,987.09
2017-02-23T11:28:04.550Z,986.99
2017-02-23T11:29:09.683Z,986.99
2017-02-23T11:30:15.769Z,986.87
2017-02-23T11:31:20.897Z,986.86
2017-02-23T11:32:26.032Z,986.93
2017-02-23T11:33:32.222Z,986.84
2017-02-23T11:34:38.305Z,986.92
2017-02-23T11:35:44.400Z,986.88
2017-02-23T11:36:50.543Z,986.89
2017-02-23T11:37:56.714Z,986.81
2017-02-23T11:39:01.835Z,986.7
2017-02-23T11:40:06.963Z,986.68
2017-02-23T11:41:13.058Z,986.62
2017-02-23T11:42:18.200Z,986.62
2017-02-23T11:43:21.358Z,986.6
2017-02-23T11:44:27.486Z,986.59
2017-02-23T11:45:32.597Z,986.54
2017-02-23T11:46:37.721Z,986.37
2017-02-23T11:47:41.870Z,986.67
2017-02-23T11:48:47.964Z,986.3
2017-02-23T11:49:54.063Z,986.32
2017-02-23T11:51:00.167Z,986.32
2017-02-23T11:52:04.292Z,986.21
2017-02-23T11:53:07.482Z,986.24
2017-02-23T11:54:11.623Z,986.1
2017-02-23T11:55:17.730Z,986.18
2017-02-23T11:56:23.822Z,986.14
2017-02-23T11:57:28.947Z,986.18
2017-02-23T11:58:35.037Z,985.95
2017-02-23T11:59:41.137Z,986.19
2017-02-23T12:00:47.285Z,986.01
2017-02-23T12:01:53.382Z,985.9
2017-02-23T12:02:58.506Z,985.97
2017-02-23T12:04:04.608Z,985.87
2017-02-23T12:05:09.741Z,985.9
2017-02-23T12:06:14.858Z,985.7
2017-02-23T12:07:19.986Z,985.61
2017-02-23T12:08:26.091Z,985.6
2017-02-23T12:09:32.181Z,985.53
2017-02-23T12:10:37.321Z,985.51
2017-02-23T12:11:43.414Z,985.39
2017-02-23T12:12:48.546Z,985.28
2017-02-23T12:13:53.666Z,985.17
2017-02-23T12:14:59.775Z,985.23
2017-02-23T12:16:05.865Z,985.1
2017-02-23T12:17:11.962Z,984.94
2017-02-23T12:18:18.056Z,984.91
2017-02-23T12:19:24.148Z,984.83
2017-02-23T12:20:29.288Z,984.73
2017-02-23T12:21:34.384Z,984.72
2017-02-23T12:22:39.510Z,984.75
2017-02-23T12:23:44.633Z,984.76
2017-02-23T12:24:49.758Z,984.67
2017-02-23T12:25:53.906Z,984.65
2017-02-23T12:26:59.026Z,984.55
2017-02-23T12:28:04.149Z,984.63
2017-02-23T12:29:07.312Z,984.45
2017-02-23T12:30:13.400Z,984.34
2017-02-23T12:31:18.525Z,984.3
2017-02-23T12:32:23.657Z,984.22
2017-02-23T12:33:28.796Z,984.19
2017-02-23T12:34:33.896Z,984.25
2017-02-23T12:35:38.023Z,984.24
2017-02-23T12:36:43.150Z,984.2
2017-02-23T12:37:49.242Z,984.16
2017-02-23T12:38:53.407Z,984.18
2017-02-23T12:39:59.504Z,984.15
2017-02-23T12:41:04.625Z,984.05
2017-02-23T12:42:09.759Z,983.9
2017-02-23T12:43:14.882Z,983.78
2017-02-23T12:44:20.008Z,983.85
2017-02-23T12:45:25.146Z,983.89
2017-02-23T12:46:31.221Z,983.73
2017-02-23T12:47:37.325Z,983.63
2017-02-23T12:48:42.437Z,983.48
2017-02-23T12:49:47.548Z,983.41
2017-02-23T12:50:53.637Z,983.65
2017-02-23T12:51:59.731Z,983.5
2017-02-23T12:53:05.833Z,983.45
2017-02-23T12:54:10.950Z,983.37
2017-02-23T12:55:15.102Z,983.4
2017-02-23T12:56:20.259Z,983.41
2017-02-23T12:57:26.372Z,983.31
2017-02-23T12:58:31.489Z,983.26
2017-02-23T12:59:35.651Z,983.29
2017-02-23T13:00:40.737Z,983.24
2017-02-23T13:01:46.823Z,983.2
2017-02-23T13:02:51.964Z,983.12
2017-02-23T13:03:58.062Z,983.17
2017-02-23T13:05:04.152Z,983.21
2017-02-23T13:06:08.305Z,983.13
2017-02-23T13:07:12.447Z,983.11
2017-02-23T13:08:17.574Z,983.09
2017-02-23T13:09:22.680Z,983.05
2017-02-23T13:10:28.769Z,983.03
2017-02-23T13:11:34.885Z,983.07
2017-02-23T13:12:40.960Z,982.94
2017-02-23T13:13:46.096Z,982.9
2017-02-23T13:14:52.182Z,982.91
2017-02-23T13:15:58.285Z,982.65
2017-02-23T13:17:02.453Z,982.83
2017-02-23T13:18:08.568Z,982.89
2017-02-23T13:19:14.652Z,982.82
2017-02-23T13:20:20.761Z,982.65
2017-02-23T13:21:26.857Z,982.67
2017-02-23T13:22:32.951Z,982.67
2017-02-23T13:23:37.117Z,982.39
2017-02-23T13:24:41.280Z,982.6
2017-02-23T13:25:46.449Z,982.46
2017-02-23T13:26:52.585Z,982.46
2017-02-23T13:27:57.709Z,982.42
2017-02-23T13:29:02.847Z,982.43
2017-02-23T13:30:07.984Z,982.3
2017-02-23T13:31:13.208Z,982.27
2017-02-23T13:32:18.335Z,982.38
2017-02-23T13:33:23.460Z,982.25
2017-02-23T13:34:29.548Z,982.22
2017-02-23T13:35:33.697Z,982.18
2017-02-23T13:36:36.881Z,982.05
2017-02-23T13:37:42.983Z,982.1
2017-02-23T13:38:49.077Z,982.07
2017-02-23T13:39:54.172Z,981.93
2017-02-23T13:40:59.306Z,981.98